sensor_id;sensor_type;location;lat;lon;timestamp;pressure;altitude;pressure_sealevel;temperature;humidity
7824;BME280;3957;48.61947800;9.05303100;2023-04-29T00:01:00;95815.59;;;11.34;100.00
7824;BME280;3957;48.61947800;9.05303100;2023-04-29T00:02:03;95816.59;;;11.33;100.00
7824;BME280;3957;48.61947800;9.05303100;2023-04-29T00:03:05;95815.63;;;11.27;100.00
7824;BME280;3957;48.61947800;9.05303100;2023-04-29T00:04:07;95811.22;;;11.39;100.00
7824;BME280;3957;48.61947800;9.05303100;2023-04-29T00:05:09;95819.84;;;11.42;100.00
7824;BME280;3957;48.61947800;9.05303100;2023-04-29T00:06:11;95809.38;;;11.65;100.00
7824;BME280;3957;48.61947800;9.05303100;2023-04-29T00:07:13;95810.84;;;11.61;100.00
7824;BME280;3957;48.61947800;9.05303100;2023-04-29T00:08:16;95801.00;;;11.55;100.00
7824;BME280;3957;48.61947800;9.05303100;2023-04-29T00:09:18;95808.66;;;11.51;100.00
7824;BME280;3957;48.61947800;9.05303100;2023-04-29T00:10:19;95803.13;;;11.46;100.00
7824;BME280;3957;48.61947800;9.05303100;2023-04-29T00:11:21;95807.66;;;11.46;100.00
7824;BME280;3957;48.61947800;9.05303100;2023-04-29T00:12:22;95805.22;;;11.37;100.00
7824;BME280;3957;48.61947800;9.05303100;2023-04-29T00:13:24;95809.78;;;11.37;100.00
7824;BME280;3957;48.61947800;9.05303100;2023-04-29T00:14:26;95806.47;;;11.35;100.00
7824;BME280;3957;48.61947800;9.05303100;2023-04-29T00:15:28;95804.00;;;11.40;100.00
7824;BME280;3957;48.61947800;9.05303100;2023-04-29T00:16:29;95797.13;;;11.51;100.00
7824;BME280;3957;48.61947800;9.05303100;2023-04-29T00:17:31;95801.75;;;11.37;100.00
7824;BME280;3957;48.61947800;9.05303100;2023-04-29T00:18:33;95807.22;;;11.49;100.00
7824;BME280;3957;48.61947800;9.05303100;2023-04-29T00:19:34;95807.91;;;11.37;100.00
7824;BME280;3957;48.61947800;9.05303100;2023-04-29T00:20:36;95798.06;;;11.31;100.00
7824;BME280;3957;48.61947800;9.05303100;2023-04-29T00:21:40;95804.69;;;11.29;100.00
7824;BME280;3957;48.61947800;9.05303100;2023-04-29T00:22:42;95805.28;;;11.31;100.00
7824;BME280;3957;48.61947800;9.05303100;2023-04-29T00:23:43;95800.34;;;11.28;100.00
7824;BME280;3957;48.61947800;9.05303100;2023-04-29T00:24:45;95807.81;;;11.19;100.00
7824;BME280;3957;48.61947800;9.05303100;2023-04-29T00:25:47;95803.06;;;11.21;100.00
7824;BME280;3957;48.61947800;9.05303100;2023-04-29T00:26:48;95805.97;;;11.19;100.00
7824;BME280;3957;48.61947800;9.05303100;2023-04-29T00:27:50;95806.97;;;11.25;100.00
7824;BME280;3957;48.61947800;9.05303100;2023-04-29T00:28:51;95805.50;;;11.29;100.00
7824;BME280;3957;48.61947800;9.05303100;2023-04-29T00:29:53;95813.31;;;11.31;100.00
7824;BME280;3957;48.61947800;9.05303100;2023-04-29T00:30:55;95806.19;;;11.18;100.00
7824;BME280;3957;48.61947800;9.05303100;2023-04-29T00:31:57;95809.88;;;11.17;100.00
7824;BME280;3957;48.61947800;9.05303100;2023-04-29T00:32:59;95809.88;;;11.17;100.00
7824;BME280;3957;48.61947800;9.05303100;2023-04-29T00:34:01;95809.41;;;11.27;100.00
7824;BME280;3957;48.61947800;9.05303100;2023-04-29T00:35:03;95811.06;;;11.28;100.00
7824;BME280;3957;48.61947800;9.05303100;2023-04-29T00:36:06;95804.22;;;11.38;100.00
7824;BME280;3957;48.61947800;9.05303100;2023-04-29T00:37:07;95807.34;;;11.29;100.00
7824;BME280;3957;48.61947800;9.05303100;2023-04-29T00:38:09;95802.03;;;11.22;100.00
7824;BME280;3957;48.61947800;9.05303100;2023-04-29T00:39:11;95806.59;;;11.21;100.00
7824;BME280;3957;48.61947800;9.05303100;2023-04-29T00:40:15;95805.13;;;11.26;100.00
7824;BME280;3957;48.61947800;9.05303100;2023-04-29T00:41:17;95801.81;;;11.23;100.00
7824;BME280;3957;48.61947800;9.05303100;2023-04-29T00:42:20;95800.75;;;11.31;100.00
7824;BME280;3957;48.61947800;9.05303100;2023-04-29T00:43:22;95804.47;;;11.30;100.00
7824;BME280;3957;48.61947800;9.05303100;2023-04-29T00:44:23;95804.47;;;11.30;100.00
7824;BME280;3957;48.61947800;9.05303100;2023-04-29T00:45:25;95805.28;;;11.31;100.00
7824;BME280;3957;48.61947800;9.05303100;2023-04-29T00:46:27;95804.25;;;11.32;100.00
7824;BME280;3957;48.61947800;9.05303100;2023-04-29T00:47:29;95807.97;;;11.24;100.00
7824;BME280;3957;48.61947800;9.05303100;2023-04-29T00:48:30;95806.59;;;11.21;100.00
7824;BME280;3957;48.61947800;9.05303100;2023-04-29T00:49:33;95810.94;;;11.16;100.00
7824;BME280;3957;48.61947800;9.05303100;2023-04-29T00:50:34;95812.19;;;11.13;100.00
7824;BME280;3957;48.61947800;9.05303100;2023-04-29T00:51:38;95801.94;;;11.03;100.00
7824;BME280;3957;48.61947800;9.05303100;2023-04-29T00:52:41;95816.34;;;11.02;100.00
7824;BME280;3957;48.61947800;9.05303100;2023-04-29T00:53:43;95814.69;;;11.08;100.00
7824;BME280;3957;48.61947800;9.05303100;2023-04-29T00:54:45;95813.47;;;11.04;100.00
7824;BME280;3957;48.61947800;9.05303100;2023-04-29T00:55:47;95809.97;;;11.03;100.00
7824;BME280;3957;48.61947800;9.05303100;2023-04-29T00:56:52;95812.41;;;11.12;100.00
7824;BME280;3957;48.61947800;9.05303100;2023-04-29T00:57:54;95812.41;;;11.12;100.00
7824;BME280;3957;48.61947800;9.05303100;2023-04-29T00:58:57;95815.91;;;11.12;100.00
7824;BME280;3957;48.61947800;9.05303100;2023-04-29T00:59:59;95818.34;;;11.14;100.00
7824;BME280;3957;48.61947800;9.05303100;2023-04-29T01:01:01;95813.00;;;11.14;100.00
7824;BME280;3957;48.61947800;9.05303100;2023-04-29T01:02:07;95821.03;;;11.14;100.00
7824;BME280;3957;48.61947800;9.05303100;2023-04-29T01:03:09;95818.56;;;11.12;100.00
7824;BME280;3957;48.61947800;9.05303100;2023-04-29T01:04:11;95816.09;;;11.17;100.00
7824;BME280;3957;48.61947800;9.05303100;2023-04-29T01:05:13;95818.13;;;11.15;100.00
7824;BME280;3957;48.61947800;9.05303100;2023-04-29T01:06:28;95813.63;;;11.16;100.00
7824;BME280;3957;48.61947800;9.05303100;2023-04-29T01:07:51;95809.31;;;11.08;100.00
7824;BME280;3957;48.61947800;9.05303100;2023-04-29T01:10:26;95808.88;;;11.11;100.00
7824;BME280;3957;48.61947800;9.05303100;2023-04-29T01:11:34;95818.09;;;11.22;100.00
7824;BME280;3957;48.61947800;9.05303100;2023-04-29T01:13:57;95811.59;;;11.04;100.00
7824;BME280;3957;48.61947800;9.05303100;2023-04-29T01:16:20;95802.09;;;11.09;100.00
7824;BME280;3957;48.61947800;9.05303100;2023-04-29T01:17:25;95807.66;;;11.07;100.00
7824;BME280;3957;48.61947800;9.05303100;2023-04-29T01:18:40;95803.53;;;11.11;100.00
7824;BME280;3957;48.61947800;9.05303100;2023-04-29T01:19:55;95812.44;;;11.05;100.00
7824;BME280;3957;48.61947800;9.05303100;2023-04-29T01:20:58;95807.66;;;11.07;100.00
7824;BME280;3957;48.61947800;9.05303100;2023-04-29T01:22:00;95805.00;;;11.07;100.00
7824;BME280;3957;48.61947800;9.05303100;2023-04-29T01:23:03;95810.41;;;10.94;100.00
7824;BME280;3957;48.61947800;9.05303100;2023-04-29T01:24:05;95818.44;;;10.94;100.00
7824;BME280;3957;48.61947800;9.05303100;2023-04-29T01:25:07;95803.81;;;10.89;100.00
7824;BME280;3957;48.61947800;9.05303100;2023-04-29T01:26:31;95799.09;;;10.92;100.00
7824;BME280;3957;48.61947800;9.05303100;2023-04-29T01:29:36;95800.53;;;10.94;100.00
7824;BME280;3957;48.61947800;9.05303100;2023-04-29T01:30:51;95799.44;;;11.02;100.00
7824;BME280;3957;48.61947800;9.05303100;2023-04-29T01:32:03;95799.06;;;10.98;100.00
7824;BME280;3957;48.61947800;9.05303100;2023-04-29T01:33:19;95807.69;;;11.00;100.00
7824;BME280;3957;48.61947800;9.05303100;2023-04-29T01:34:44;95805.25;;;10.92;100.00
7824;BME280;3957;48.61947800;9.05303100;2023-04-29T01:36:07;95797.84;;;10.94;100.00
7824;BME280;3957;48.61947800;9.05303100;2023-04-29T01:37:18;95807.31;;;10.97;100.00
7824;BME280;3957;48.61947800;9.05303100;2023-04-29T01:42:44;95800.09;;;10.97;100.00
7824;BME280;3957;48.61947800;9.05303100;2023-04-29T01:43:51;95796.63;;;10.90;100.00
7824;BME280;3957;48.61947800;9.05303100;2023-04-29T01:45:00;95796.44;;;10.85;100.00
7824;BME280;3957;48.61947800;9.05303100;2023-04-29T01:46:08;95796.00;;;10.88;100.00
7824;BME280;3957;48.61947800;9.05303100;2023-04-29T01:47:12;95796.84;;;10.88;100.00
7824;BME280;3957;48.61947800;9.05303100;2023-04-29T01:48:19;95799.31;;;10.90;100.00
7824;BME280;3957;48.61947800;9.05303100;2023-04-29T01:49:25;95795.63;;;10.91;100.00
7824;BME280;3957;48.61947800;9.05303100;2023-04-29T01:50:27;95796.81;;;10.95;100.00
7824;BME280;3957;48.61947800;9.05303100;2023-04-29T01:51:33;95794.78;;;10.84;100.00
7824;BME280;3957;48.61947800;9.05303100;2023-04-29T01:52:35;95790.50;;;10.83;100.00
7824;BME280;3957;48.61947800;9.05303100;2023-04-29T01:53:37;95794.22;;;10.82;100.00
7824;BME280;3957;48.61947800;9.05303100;2023-04-29T01:54:40;95792.56;;;10.81;100.00
7824;BME280;3957;48.61947800;9.05303100;2023-04-29T01:55:42;95798.94;;;10.80;100.00
7824;BME280;3957;48.61947800;9.05303100;2023-04-29T01:56:56;95796.69;;;10.77;100.00
7824;BME280;3957;48.61947800;9.05303100;2023-04-29T01:58:16;95802.69;;;10.72;100.00
7824;BME280;3957;48.61947800;9.05303100;2023-04-29T01:59:34;95801.44;;;10.81;100.00
7824;BME280;3957;48.61947800;9.05303100;2023-04-29T02:01:10;95797.53;;;10.77;100.00
7824;BME280;3957;48.61947800;9.05303100;2023-04-29T02:02:12;95796.69;;;10.77;100.00
7824;BME280;3957;48.61947800;9.05303100;2023-04-29T02:03:25;95801.59;;;10.80;100.00
7824;BME280;3957;48.61947800;9.05303100;2023-04-29T02:04:29;95805.56;;;10.70;100.00
7824;BME280;3957;48.61947800;9.05303100;2023-04-29T02:05:34;95797.34;;;10.65;100.00
7824;BME280;3957;48.61947800;9.05303100;2023-04-29T02:06:36;95797.75;;;10.69;100.00
7824;BME280;3957;48.61947800;9.05303100;2023-04-29T02:07:39;95792.81;;;10.66;100.00
7824;BME280;3957;48.61947800;9.05303100;2023-04-29T02:08:40;95790.56;;;10.63;100.00
7824;BME280;3957;48.61947800;9.05303100;2023-04-29T02:09:42;95796.31;;;10.66;100.00
7824;BME280;3957;48.61947800;9.05303100;2023-04-29T02:10:55;95800.03;;;10.59;100.00
7824;BME280;3957;48.61947800;9.05303100;2023-04-29T02:12:11;95799.66;;;10.55;100.00
7824;BME280;3957;48.61947800;9.05303100;2023-04-29T02:13:13;95803.38;;;10.54;100.00
7824;BME280;3957;48.61947800;9.05303100;2023-04-29T02:14:15;95798.81;;;10.54;100.00
7824;BME280;3957;48.61947800;9.05303100;2023-04-29T02:15:17;95799.84;;;10.53;100.00
7824;BME280;3957;48.61947800;9.05303100;2023-04-29T02:16:20;95791.81;;;10.53;100.00
7824;BME280;3957;48.61947800;9.05303100;2023-04-29T02:17:34;95802.75;;;10.52;100.00
7824;BME280;3957;48.61947800;9.05303100;2023-04-29T02:18:36;95803.97;;;10.49;100.00
7824;BME280;3957;48.61947800;9.05303100;2023-04-29T02:19:39;95803.97;;;10.56;100.00
7824;BME280;3957;48.61947800;9.05303100;2023-04-29T02:20:41;95799.84;;;10.53;100.00
7824;BME280;3957;48.61947800;9.05303100;2023-04-29T02:21:42;95803.97;;;10.56;100.00
7824;BME280;3957;48.61947800;9.05303100;2023-04-29T02:22:44;95805.41;;;10.52;100.00
7824;BME280;3957;48.61947800;9.05303100;2023-04-29T02:23:46;95805.19;;;10.53;100.00
7824;BME280;3957;48.61947800;9.05303100;2023-04-29T02:24:47;95805.19;;;10.53;100.00
7824;BME280;3957;48.61947800;9.05303100;2023-04-29T02:25:49;95803.16;;;10.55;100.00
7824;BME280;3957;48.61947800;9.05303100;2023-04-29T02:26:51;95802.94;;;10.57;100.00
7824;BME280;3957;48.61947800;9.05303100;2023-04-29T02:27:53;95808.72;;;10.54;100.00
7824;BME280;3957;48.61947800;9.05303100;2023-04-29T02:28:54;95808.28;;;10.57;100.00
7824;BME280;3957;48.61947800;9.05303100;2023-04-29T02:29:57;95807.84;;;10.60;100.00
7824;BME280;3957;48.61947800;9.05303100;2023-04-29T02:30:59;95798.81;;;10.54;100.00
7824;BME280;3957;48.61947800;9.05303100;2023-04-29T02:32:01;95800.66;;;10.61;100.00
7824;BME280;3957;48.61947800;9.05303100;2023-04-29T02:33:02;95795.91;;;10.63;100.00
7824;BME280;3957;48.61947800;9.05303100;2023-04-29T02:34:07;95799.78;;;10.74;100.00
7824;BME280;3957;48.61947800;9.05303100;2023-04-29T02:35:08;95791.56;;;10.68;100.00
7824;BME280;3957;48.61947800;9.05303100;2023-04-29T02:36:10;95798.59;;;10.63;100.00
7824;BME280;3957;48.61947800;9.05303100;2023-04-29T02:37:11;95795.34;;;10.54;100.00
7824;BME280;3957;48.61947800;9.05303100;2023-04-29T02:38:13;95801.06;;;10.58;100.00
7824;BME280;3957;48.61947800;9.05303100;2023-04-29T02:39:15;95794.72;;;10.52;100.00
7824;BME280;3957;48.61947800;9.05303100;2023-04-29T02:40:19;95792.44;;;10.55;100.00
7824;BME280;3957;48.61947800;9.05303100;2023-04-29T02:41:20;95798.81;;;10.54;100.00
7824;BME280;3957;48.61947800;9.05303100;2023-04-29T02:42:22;95797.16;;;10.60;100.00
7824;BME280;3957;48.61947800;9.05303100;2023-04-29T02:43:24;95793.03;;;10.58;100.00
7824;BME280;3957;48.61947800;9.05303100;2023-04-29T02:44:25;95799.84;;;10.60;100.00
7824;BME280;3957;48.61947800;9.05303100;2023-04-29T02:45:27;95794.06;;;10.63;100.00
7824;BME280;3957;48.61947800;9.05303100;2023-04-29T02:46:28;95791.22;;;10.58;100.00
7824;BME280;3957;48.61947800;9.05303100;2023-04-29T02:47:30;95790.59;;;10.56;100.00
7824;BME280;3957;48.61947800;9.05303100;2023-04-29T02:48:32;95793.88;;;10.58;100.00
7824;BME280;3957;48.61947800;9.05303100;2023-04-29T02:49:33;95796.16;;;10.54;100.00
7824;BME280;3957;48.61947800;9.05303100;2023-04-29T02:50:35;95796.94;;;10.62;100.00
7824;BME280;3957;48.61947800;9.05303100;2023-04-29T02:51:37;95793.69;;;10.53;100.00
7824;BME280;3957;48.61947800;9.05303100;2023-04-29T02:52:39;95793.09;;;10.51;100.00
7824;BME280;3957;48.61947800;9.05303100;2023-04-29T02:53:42;95797.41;;;10.45;100.00
7824;BME280;3957;48.61947800;9.05303100;2023-04-29T02:54:44;95798.03;;;10.34;100.00
7824;BME280;3957;48.61947800;9.05303100;2023-04-29T02:55:46;95795.16;;;10.35;100.00
7824;BME280;3957;48.61947800;9.05303100;2023-04-29T02:56:48;95792.47;;;10.29;100.00
7824;BME280;3957;48.61947800;9.05303100;2023-04-29T02:57:50;95798.88;;;10.28;100.00
7824;BME280;3957;48.61947800;9.05303100;2023-04-29T02:58:51;95793.75;;;10.26;100.00
7824;BME280;3957;48.61947800;9.05303100;2023-04-29T02:59:53;95802.16;;;10.23;100.00
7824;BME280;3957;48.61947800;9.05303100;2023-04-29T03:00:54;95794.34;;;10.15;100.00
7824;BME280;3957;48.61947800;9.05303100;2023-04-29T03:01:56;95794.34;;;10.15;100.00
7824;BME280;3957;48.61947800;9.05303100;2023-04-29T03:02:59;95801.56;;;10.21;100.00
7824;BME280;3957;48.61947800;9.05303100;2023-04-29T03:04:00;95799.53;;;10.16;100.00
7824;BME280;3957;48.61947800;9.05303100;2023-04-29T03:05:03;95799.31;;;10.18;100.00
7824;BME280;3957;48.61947800;9.05303100;2023-04-29T03:06:05;95801.97;;;10.18;100.00
7824;BME280;3957;48.61947800;9.05303100;2023-04-29T03:07:06;95801.34;;;10.16;100.00
7824;BME280;3957;48.61947800;9.05303100;2023-04-29T03:08:08;95799.31;;;10.11;100.00
7824;BME280;3957;48.61947800;9.05303100;2023-04-29T03:09:11;95797.25;;;10.07;100.00
7824;BME280;3957;48.61947800;9.05303100;2023-04-29T03:10:13;95811.44;;;10.00;100.00
7824;BME280;3957;48.61947800;9.05303100;2023-04-29T03:11:15;95805.91;;;9.95;100.00
7824;BME280;3957;48.61947800;9.05303100;2023-04-29T03:12:16;95805.47;;;10.05;100.00
7824;BME280;3957;48.61947800;9.05303100;2023-04-29T03:13:19;95806.09;;;10.00;100.00
7824;BME280;3957;48.61947800;9.05303100;2023-04-29T03:14:22;95800.75;;;10.00;100.00
7824;BME280;3957;48.61947800;9.05303100;2023-04-29T03:15:27;95805.69;;;10.03;100.00
7824;BME280;3957;48.61947800;9.05303100;2023-04-29T03:16:28;95804.25;;;10.01;100.00
7824;BME280;3957;48.61947800;9.05303100;2023-04-29T03:17:30;95803.00;;;10.03;100.00
7824;BME280;3957;48.61947800;9.05303100;2023-04-29T03:18:32;95806.91;;;10.08;100.00
7824;BME280;3957;48.61947800;9.05303100;2023-04-29T03:19:33;95809.38;;;10.02;100.00
7824;BME280;3957;48.61947800;9.05303100;2023-04-29T03:20:35;95803.00;;;9.97;100.00
7824;BME280;3957;48.61947800;9.05303100;2023-04-29T03:21:38;95806.72;;;9.96;100.00
7824;BME280;3957;48.61947800;9.05303100;2023-04-29T03:22:40;95808.56;;;10.09;100.00
7824;BME280;3957;48.61947800;9.05303100;2023-04-29T03:23:42;95801.97;;;10.18;100.00
7824;BME280;3957;48.61947800;9.05303100;2023-04-29T03:24:51;95803.22;;;10.09;100.00
7824;BME280;3957;48.61947800;9.05303100;2023-04-29T03:25:54;95795.63;;;10.06;100.00
7824;BME280;3957;48.61947800;9.05303100;2023-04-29T03:26:56;95792.75;;;10.00;100.00
7824;BME280;3957;48.61947800;9.05303100;2023-04-29T03:28:00;95793.53;;;10.21;100.00
7824;BME280;3957;48.61947800;9.05303100;2023-04-29T03:29:02;95800.75;;;10.14;100.00
7824;BME280;3957;48.61947800;9.05303100;2023-04-29T03:30:05;95798.88;;;10.14;100.00
7824;BME280;3957;48.61947800;9.05303100;2023-04-29T03:31:08;95795.19;;;10.09;100.00
7824;BME280;3957;48.61947800;9.05303100;2023-04-29T03:32:12;95795.63;;;9.99;100.00
7824;BME280;3957;48.61947800;9.05303100;2023-04-29T03:33:14;95807.34;;;9.91;100.00
7824;BME280;3957;48.61947800;9.05303100;2023-04-29T03:34:15;95802.63;;;9.80;100.00
7824;BME280;3957;48.61947800;9.05303100;2023-04-29T03:35:23;95802.81;;;9.78;100.00
7824;BME280;3957;48.61947800;9.05303100;2023-04-29T03:36:45;95800.97;;;9.79;100.00
7824;BME280;3957;48.61947800;9.05303100;2023-04-29T03:37:47;95804.47;;;9.79;100.00
7824;BME280;3957;48.61947800;9.05303100;2023-04-29T03:38:57;95802.00;;;9.71;100.00
7824;BME280;3957;48.61947800;9.05303100;2023-04-29T03:40:00;95790.91;;;9.67;100.00
7824;BME280;3957;48.61947800;9.05303100;2023-04-29T03:41:01;95793.56;;;9.61;100.00
7824;BME280;3957;48.61947800;9.05303100;2023-04-29T03:42:04;95793.56;;;9.54;100.00
7824;BME280;3957;48.61947800;9.05303100;2023-04-29T03:43:06;95792.53;;;9.62;100.00
7824;BME280;3957;48.61947800;9.05303100;2023-04-29T03:44:09;95794.41;;;9.55;100.00
7824;BME280;3957;48.61947800;9.05303100;2023-04-29T03:45:12;95795.00;;;9.50;100.00
7824;BME280;3957;48.61947800;9.05303100;2023-04-29T03:46:14;95790.72;;;9.56;100.00
7824;BME280;3957;48.61947800;9.05303100;2023-04-29T03:47:16;95798.69;;;9.62;100.00
7824;BME280;3957;48.61947800;9.05303100;2023-04-29T03:48:19;95796.88;;;9.63;100.00
7824;BME280;3957;48.61947800;9.05303100;2023-04-29T03:49:21;95797.06;;;9.68;100.00
7824;BME280;3957;48.61947800;9.05303100;2023-04-29T03:50:24;95799.72;;;9.75;100.00
7824;BME280;3957;48.61947800;9.05303100;2023-04-29T03:51:26;95793.78;;;9.73;100.00
7824;BME280;3957;48.61947800;9.05303100;2023-04-29T03:52:37;95792.34;;;9.63;100.00
7824;BME280;3957;48.61947800;9.05303100;2023-04-29T03:53:44;95788.63;;;9.58;100.00
7824;BME280;3957;48.61947800;9.05303100;2023-04-29T03:54:46;95795.84;;;9.50;100.00
7824;BME280;3957;48.61947800;9.05303100;2023-04-29T03:55:48;95793.38;;;9.49;100.00
7824;BME280;3957;48.61947800;9.05303100;2023-04-29T03:56:50;95789.47;;;9.45;100.00
7824;BME280;3957;48.61947800;9.05303100;2023-04-29T03:57:51;95794.78;;;9.58;100.00
7824;BME280;3957;48.61947800;9.05303100;2023-04-29T03:58:53;95785.38;;;9.56;100.00
7824;BME280;3957;48.61947800;9.05303100;2023-04-29T03:59:59;95792.34;;;9.63;100.00
7824;BME280;3957;48.61947800;9.05303100;2023-04-29T04:01:01;95797.47;;;9.58;100.00
7824;BME280;3957;48.61947800;9.05303100;2023-04-29T04:02:11;95791.72;;;9.61;100.00
7824;BME280;3957;48.61947800;9.05303100;2023-04-29T04:03:13;95784.09;;;9.58;100.00
7824;BME280;3957;48.61947800;9.05303100;2023-04-29T04:04:15;95787.19;;;9.55;100.00
7824;BME280;3957;48.61947800;9.05303100;2023-04-29T04:05:20;95784.72;;;9.47;100.00
7824;BME280;3957;48.61947800;9.05303100;2023-04-29T04:06:27;95785.75;;;9.39;100.00
7824;BME280;3957;48.61947800;9.05303100;2023-04-29T04:07:29;95788.00;;;9.35;100.00
7824;BME280;3957;48.61947800;9.05303100;2023-04-29T04:08:56;95789.66;;;9.36;100.00
7824;BME280;3957;48.61947800;9.05303100;2023-04-29T04:10:01;95796.25;;;9.41;100.00
7824;BME280;3957;48.61947800;9.05303100;2023-04-29T04:11:04;95802.56;;;9.33;100.00
7824;BME280;3957;48.61947800;9.05303100;2023-04-29T04:12:09;95798.28;;;9.39;100.00
7824;BME280;3957;48.61947800;9.05303100;2023-04-29T04:13:11;95797.66;;;9.36;100.00
7824;BME280;3957;48.61947800;9.05303100;2023-04-29T04:14:15;95796.00;;;9.35;100.00
7824;BME280;3957;48.61947800;9.05303100;2023-04-29T04:15:18;95800.53;;;9.28;100.00
7824;BME280;3957;48.61947800;9.05303100;2023-04-29T04:16:19;95804.81;;;9.29;100.00
7824;BME280;3957;48.61947800;9.05303100;2023-04-29T04:17:21;95806.06;;;9.40;100.00
7824;BME280;3957;48.61947800;9.05303100;2023-04-29T04:18:22;95804.03;;;9.42;100.00
7824;BME280;3957;48.61947800;9.05303100;2023-04-29T04:19:24;95814.72;;;9.42;100.00
7824;BME280;3957;48.61947800;9.05303100;2023-04-29T04:20:27;95812.25;;;9.41;100.00
7824;BME280;3957;48.61947800;9.05303100;2023-04-29T04:21:29;95813.28;;;9.40;100.00
7824;BME280;3957;48.61947800;9.05303100;2023-04-29T04:22:37;95814.13;;;9.53;100.00
7824;BME280;3957;48.61947800;9.05303100;2023-04-29T04:23:58;95814.53;;;9.50;100.00
7824;BME280;3957;48.61947800;9.05303100;2023-04-29T04:25:01;95817.41;;;9.49;100.00
7824;BME280;3957;48.61947800;9.05303100;2023-04-29T04:26:03;95821.91;;;9.48;100.00
7824;BME280;3957;48.61947800;9.05303100;2023-04-29T04:27:25;95821.91;;;9.48;100.00
7824;BME280;3957;48.61947800;9.05303100;2023-04-29T04:28:27;95820.88;;;9.43;100.00
7824;BME280;3957;48.61947800;9.05303100;2023-04-29T04:29:36;95817.19;;;9.44;100.00
7824;BME280;3957;48.61947800;9.05303100;2023-04-29T04:30:45;95820.66;;;9.44;100.00
7824;BME280;3957;48.61947800;9.05303100;2023-04-29T04:31:47;95818.22;;;9.43;100.00
7824;BME280;3957;48.61947800;9.05303100;2023-04-29T04:32:50;95820.28;;;9.41;100.00
7824;BME280;3957;48.61947800;9.05303100;2023-04-29T04:33:52;95822.53;;;9.44;100.00
7824;BME280;3957;48.61947800;9.05303100;2023-04-29T04:34:53;95819.47;;;9.53;100.00
7824;BME280;3957;48.61947800;9.05303100;2023-04-29T04:35:56;95820.06;;;9.62;100.00
7824;BME280;3957;48.61947800;9.05303100;2023-04-29T04:36:57;95828.09;;;9.62;100.00
7824;BME280;3957;48.61947800;9.05303100;2023-04-29T04:37:59;95814.94;;;9.67;100.00
7824;BME280;3957;48.61947800;9.05303100;2023-04-29T04:39:00;95817.63;;;9.74;100.00
7824;BME280;3957;48.61947800;9.05303100;2023-04-29T04:40:02;95815.16;;;9.79;100.00
7824;BME280;3957;48.61947800;9.05303100;2023-04-29T04:41:07;95815.19;;;9.86;100.00
7824;BME280;3957;48.61947800;9.05303100;2023-04-29T04:42:11;95818.03;;;9.98;100.00
7824;BME280;3957;48.61947800;9.05303100;2023-04-29T04:43:13;95819.47;;;10.00;100.00
7824;BME280;3957;48.61947800;9.05303100;2023-04-29T04:44:15;95815.56;;;10.10;100.00
7824;BME280;3957;48.61947800;9.05303100;2023-04-29T04:45:40;95818.41;;;10.15;100.00
7824;BME280;3957;48.61947800;9.05303100;2023-04-29T04:46:42;95814.72;;;10.16;100.00
7824;BME280;3957;48.61947800;9.05303100;2023-04-29T04:48:02;95814.72;;;10.23;100.00
7824;BME280;3957;48.61947800;9.05303100;2023-04-29T04:49:06;95820.06;;;10.16;100.00
7824;BME280;3957;48.61947800;9.05303100;2023-04-29T04:50:15;95822.75;;;10.23;100.00
7824;BME280;3957;48.61947800;9.05303100;2023-04-29T04:51:20;95825.41;;;10.23;100.00
7824;BME280;3957;48.61947800;9.05303100;2023-04-29T04:52:22;95825.41;;;10.16;100.00
7824;BME280;3957;48.61947800;9.05303100;2023-04-29T04:53:36;95824.81;;;10.20;100.00
7824;BME280;3957;48.61947800;9.05303100;2023-04-29T04:54:44;95826.44;;;10.21;100.00
7824;BME280;3957;48.61947800;9.05303100;2023-04-29T04:55:51;95827.88;;;10.24;100.00
7824;BME280;3957;48.61947800;9.05303100;2023-04-29T04:56:53;95821.88;;;10.29;100.00
7824;BME280;3957;48.61947800;9.05303100;2023-04-29T04:57:54;95831.16;;;10.40;100.00
7824;BME280;3957;48.61947800;9.05303100;2023-04-29T04:58:56;95824.38;;;10.44;100.00
7824;BME280;3957;48.61947800;9.05303100;2023-04-29T04:59:58;95835.28;;;10.42;100.00
7824;BME280;3957;48.61947800;9.05303100;2023-04-29T05:01:00;95829.69;;;10.50;100.00
7824;BME280;3957;48.61947800;9.05303100;2023-04-29T05:02:02;95835.69;;;10.46;100.00
7824;BME280;3957;48.61947800;9.05303100;2023-04-29T05:03:04;95826.44;;;10.35;100.00
7824;BME280;3957;48.61947800;9.05303100;2023-04-29T05:04:06;95833.66;;;10.34;100.00
7824;BME280;3957;48.61947800;9.05303100;2023-04-29T05:05:08;95835.69;;;10.39;100.00
7824;BME280;3957;48.61947800;9.05303100;2023-04-29T05:06:12;95836.94;;;10.43;100.00
7824;BME280;3957;48.61947800;9.05303100;2023-04-29T05:07:16;95834.25;;;10.43;100.00
7824;BME280;3957;48.61947800;9.05303100;2023-04-29T05:08:33;95837.53;;;10.45;100.00
7824;BME280;3957;48.61947800;9.05303100;2023-04-29T05:09:37;95842.47;;;10.48;100.00
7824;BME280;3957;48.61947800;9.05303100;2023-04-29T05:10:39;95840.03;;;10.47;100.00
7824;BME280;3957;48.61947800;9.05303100;2023-04-29T05:11:41;95850.69;;;10.53;100.00
7824;BME280;3957;48.61947800;9.05303100;2023-04-29T05:12:48;95852.97;;;10.50;100.00
7824;BME280;3957;48.61947800;9.05303100;2023-04-29T05:13:50;95848.22;;;10.59;100.00
7824;BME280;3957;48.61947800;9.05303100;2023-04-29T05:14:52;95853.56;;;10.52;100.00
7824;BME280;3957;48.61947800;9.05303100;2023-04-29T05:15:53;95858.31;;;10.57;100.00